Time;durP1;ratioP1;P1;durP2;ratioP2;P2;SDS_P1;SDS_P2;PMS_P1;PMS_P2;Temp;Humidity;BMP_temperature;BMP_pressure;BME280_temperature;BME280_humidity;BME280_pressure;Samples;Min_cycle;Max_cycle;Signal;HPM_P1;HPM_P2
2020/12/23 00:01:46;;;;;;;51.30;17.90;;;;;;;-2.70;81.28;100888.53;1549575;92;21181;-76
2020/12/23 00:04:14;;;;;;;33.07;15.30;;;;;;;-2.69;81.51;100887.69;1571392;90;21606;-74
2020/12/23 00:06:42;;;;;;;43.33;15.43;;;;;;;-2.66;81.66;100891.24;1584523;90;21190;-77
2020/12/23 00:09:10;;;;;;;50.23;19.83;;;;;;;-2.65;81.76;100880.50;1584416;90;21482;-76
2020/12/23 00:11:38;;;;;;;49.00;18.57;;;;;;;-2.63;81.93;100890.45;1584273;90;21210;-76
2020/12/23 00:14:06;;;;;;;41.83;15.43;;;;;;;-2.61;82.01;100886.22;1584353;90;21203;-76
2020/12/23 00:16:34;;;;;;;49.83;16.37;;;;;;;-2.59;82.01;100888.00;1603213;89;21674;-76
2020/12/23 00:19:02;;;;;;;45.53;16.73;;;;;;;-2.60;82.29;100881.50;1607566;89;21761;-77
2020/12/23 00:21:33;;;;;;;48.03;19.17;;;;;;;-2.58;82.41;100887.19;1607373;89;21244;-76
2020/12/23 00:24:02;;;;;;;38.93;16.30;;;;;;;-2.62;82.60;100887.06;1607426;89;21265;-77
2020/12/23 00:26:33;;;;;;;39.08;16.40;;;;;;;-2.63;82.67;100880.14;1607550;88;21696;-75
2020/12/23 00:29:01;;;;;;;40.92;15.98;;;;;;;-2.62;82.80;100881.91;1607580;89;21651;-77
2020/12/23 00:31:29;;;;;;;39.63;15.20;;;;;;;-2.63;83.00;100873.27;1616781;82;21230;-62
2020/12/23 00:33:57;;;;;;;48.77;18.30;;;;;;;-2.64;82.83;100878.41;1643458;86;22298;-62
2020/12/23 00:36:25;;;;;;;48.23;19.17;;;;;;;-2.63;82.83;100874.56;1615574;88;21711;-63
2020/12/23 00:38:52;;;;;;;51.90;21.60;;;;;;;-2.62;82.80;100866.44;1601818;89;21743;-62
2020/12/23 00:41:20;;;;;;;44.73;16.60;;;;;;;-2.60;82.70;100859.58;1601446;89;21855;-63
2020/12/23 00:43:48;;;;;;;38.73;15.23;;;;;;;-2.63;82.85;100851.77;1641865;87;21769;-64
2020/12/23 00:46:16;;;;;;;45.37;19.23;;;;;;;-2.71;82.57;100845.51;1642385;86;22303;-64
2020/12/23 00:48:44;;;;;;;44.60;17.90;;;;;;;-2.70;82.77;100849.86;1642301;87;21646;-63
2020/12/23 00:51:13;;;;;;;37.73;15.40;;;;;;;-2.70;82.76;100844.28;1654670;85;21224;-63
2020/12/23 00:53:42;;;;;;;42.73;14.87;;;;;;;-2.69;82.64;100837.41;1663127;86;21236;-63
2020/12/23 00:56:11;;;;;;;34.53;14.87;;;;;;;-2.70;82.58;100841.70;1645506;86;21255;-63
2020/12/23 00:58:39;;;;;;;44.73;17.43;;;;;;;-2.71;82.19;100846.41;1624040;84;21881;-62
2020/12/23 01:01:07;;;;;;;42.60;15.03;;;;;;;-2.70;82.38;100830.09;1662967;86;21199;-64
2020/12/23 01:05:54;;;;;;;26.60;11.73;;;;;;;-2.63;81.24;100829.43;1814056;79;22567;-63
2020/12/23 01:08:22;;;;;;;32.50;10.70;;;;;;;-2.73;80.91;100821.42;1787171;80;22108;-65
2020/12/23 01:10:50;;;;;;;40.60;15.67;;;;;;;-2.77;80.98;100813.58;1787230;80;21285;-62
2020/12/23 01:13:18;;;;;;;41.03;15.43;;;;;;;-2.73;81.13;100805.95;1765961;80;21629;-62
2020/12/23 01:15:46;;;;;;;34.70;14.57;;;;;;;-2.70;81.16;100803.45;1756186;81;21562;-62
2020/12/23 01:18:13;;;;;;;42.70;15.80;;;;;;;-2.69;80.99;100801.31;1756169;81;21167;-63
2020/12/23 01:20:42;;;;;;;32.17;14.43;;;;;;;-2.71;81.05;100799.10;1756236;81;21208;-65
2020/12/23 01:23:10;;;;;;;33.50;14.13;;;;;;;-2.72;80.83;100786.63;1756150;81;22214;-63
2020/12/23 01:25:38;;;;;;;30.93;12.13;;;;;;;-2.72;80.94;100789.22;1756197;81;21146;-62
2020/12/23 01:28:06;;;;;;;32.67;13.40;;;;;;;-2.74;80.94;100785.72;1756026;81;21154;-62
2020/12/23 01:30:34;;;;;;;35.33;12.13;;;;;;;-2.73;81.15;100777.59;1746274;81;21658;-62
2020/12/23 01:33:03;;;;;;;41.63;15.57;;;;;;;-2.75;81.24;100775.83;1731381;82;21537;-63
2020/12/23 01:35:31;;;;;;;33.30;14.27;;;;;;;-2.73;81.22;100772.44;1731272;82;21309;-63
2020/12/23 01:37:58;;;;;;;40.63;15.57;;;;;;;-2.70;81.31;100777.66;1731180;82;21183;-62
2020/12/23 01:40:26;;;;;;;38.93;15.13;;;;;;;-2.70;81.42;100777.66;1731367;82;21222;-61
2020/12/23 01:42:54;;;;;;;40.27;14.57;;;;;;;-2.69;81.34;100781.97;1731296;82;21155;-62
2020/12/23 01:45:22;;;;;;;43.07;15.97;;;;;;;-2.72;81.35;100771.59;1731346;82;21617;-62
2020/12/23 01:47:50;;;;;;;41.50;13.40;;;;;;;-2.76;81.52;100770.23;1731231;82;21243;-61
2020/12/23 01:50:17;;;;;;;22.30;10.80;;;;;;;-2.78;81.58;100762.00;1702674;81;21697;-61
2020/12/23 01:52:45;;;;;;;32.93;12.47;;;;;;;-2.80;81.25;100758.08;1665090;83;21217;-62
2020/12/23 01:55:16;;;;;;;;;;;;;;;-2.79;81.36;100752.08;1725172;83;21576;-61
2020/12/23 01:57:43;;;;;;;;;;;;;;;-2.77;81.52;100759.86;1725106;83;20655;-62
2020/12/23 02:00:11;;;;;;;;;;;;;;;-2.78;81.28;100746.11;1725342;83;22307;-63
2020/12/23 02:02:42;;;;;;;;;;;;;;;-2.80;80.74;100756.79;1725146;83;20241;-63
2020/12/23 02:05:10;;;;;;;;;;;;;;;-2.78;80.77;100757.70;1723729;83;20286;-62
2020/12/23 02:07:39;;;;;;;;;;;;;;;-2.79;79.95;100742.19;1722897;83;20597;-62
2020/12/23 02:10:07;;;;;;;;;;;;;;;-2.78;80.08;100744.81;1722860;83;20334;-63
2020/12/23 02:12:34;;;;;;;;;;;;;;;-2.84;80.04;100725.73;1722821;83;21228;-62
2020/12/23 02:15:12;;;;;;;;;;;;;;;-2.75;80.03;100742.73;1722897;83;20595;-61
2020/12/23 02:17:40;;;;;;;;;;;;;;;-2.72;79.81;100731.20;1722420;83;20271;-63
2020/12/23 02:20:11;;;;;;;;;;;;;;;-2.68;79.85;100728.30;1722183;83;20646;-61
2020/12/23 02:22:39;;;;;;;;;;;;;;;-2.68;79.83;100729.59;1722454;83;20286;-62
2020/12/23 02:25:10;;;;;;;;;;;;;;;-2.64;79.88;100722.40;1722250;83;22216;-62
2020/12/23 02:27:38;;;;;;;;;;;;;;;-2.64;80.03;100718.53;1722272;83;20278;-61
2020/12/23 02:30:06;;;;;;;;;;;;;;;-2.61;79.99;100718.60;1722265;83;20286;-62
2020/12/23 02:32:34;;;;;;;;;;;;;;;-2.62;80.09;100714.30;1722323;83;20236;-61
2020/12/23 02:35:02;;;;;;;;;;;;;;;-2.62;79.96;100721.61;1722358;83;20589;-62
2020/12/23 02:37:31;;;;;;;;;;;;;;;-2.62;79.82;100719.45;1722370;83;21214;-63
2020/12/23 02:39:59;;;;;;;;;;;;;;;-2.63;79.71;100726.28;1722313;83;21013;-62
2020/12/23 02:42:26;;;;;;;;;;;;;;;-2.62;79.60;100706.55;1722391;83;20501;-61
2020/12/23 02:44:54;;;;;;;;;;;;;;;-2.61;79.77;100708.28;1722261;83;20524;-66
2020/12/23 02:47:22;;;;;;;;;;;;;;;-2.61;80.04;100704.00;1722369;83;20244;-61
2020/12/23 02:49:50;;;;;;;;;;;;;;;-2.61;80.09;100700.55;1738840;81;22166;-61
2020/12/23 02:52:17;;;;;;;;;;;;;;;-2.61;80.35;100692.81;1758230;81;20276;-62
2020/12/23 02:54:45;;;;;;;;;;;;;;;-2.58;80.34;100699.33;1758326;81;20271;-61
2020/12/23 02:57:12;;;;;;;;;;;;;;;-2.58;80.39;100689.02;1758442;81;20288;-62
2020/12/23 02:59:41;;;;;;;;;;;;;;;-2.58;80.30;100691.20;1758430;81;20587;-61
2020/12/23 03:02:09;;;;;;;;;;;;;;;-2.56;80.37;100687.34;1758235;81;21293;-62
2020/12/23 03:04:36;;;;;;;;;;;;;;;-2.57;80.03;100695.51;1753925;81;20345;-62
2020/12/23 03:07:04;;;;;;;;;;;;;;;-2.63;79.95;100682.45;1734118;82;20233;-62
2020/12/23 03:09:32;;;;;;;;;;;;;;;-2.61;79.73;100688.95;1734319;82;20534;-62
2020/12/23 03:12:00;;;;;;;;;;;;;;;-2.56;79.60;100686.06;1737127;82;20272;-62
2020/12/23 03:14:27;;;;;;;;;;;;;;;-2.55;79.72;100680.09;1750327;82;21728;-61
2020/12/23 03:16:55;;;;;;;;;;;;;;;-2.56;79.54;100682.19;1750352;82;20268;-61
2020/12/23 03:19:22;;;;;;;;;;;;;;;-2.55;79.57;100667.19;1748008;81;20272;-63
2020/12/23 03:21:50;;;;;;;;;;;;;;;-2.56;79.67;100660.27;1750227;82;20257;-62
2020/12/23 03:24:17;;;;;;;;;;;;;;;-2.55;80.07;100652.58;1750281;82;20260;-62
2020/12/23 03:26:44;;;;;;;;;;;;;;;-2.56;80.19;100653.40;1715237;83;21361;-60
2020/12/23 03:29:12;;;;;;;;;;;;;;;-2.56;80.54;100642.22;1715294;83;20270;-62
2020/12/23 03:31:40;;;;;;;;;;;;;;;-2.55;80.50;100650.43;1715357;83;20530;-61
2020/12/23 03:34:08;;;;;;;;;;;;;;;-2.57;80.81;100656.83;1715356;83;20220;-61
2020/12/23 03:36:39;;;;;;;;;;;;;;;-2.58;80.78;100651.63;1715368;83;20561;-61
2020/12/23 03:39:07;;;;;;;;;;;;;;;-2.58;80.79;100644.78;1715466;83;22664;-62
2020/12/23 03:41:36;;;;;;;;;;;;;;;-2.56;80.76;100644.80;1715299;83;20224;-62
2020/12/23 03:44:05;;;;;;;;;;;;;;;-2.57;80.73;100653.38;1715457;83;20573;-62
2020/12/23 03:46:32;;;;;;;;;;;;;;;-2.55;80.66;100652.58;1715426;83;20554;-61
2020/12/23 03:49:00;;;;;;;;;;;;;;;-2.54;80.67;100641.84;1717697;82;21095;-62
2020/12/23 03:51:28;;;;;;;;;;;;;;;-2.55;80.82;100638.83;1701342;84;21394;-61
2020/12/23 03:53:55;;;;;;;;;;;;;;;-2.57;80.96;100637.48;1696795;83;20231;-62
2020/12/23 03:56:23;;;;;;;;;;;;;;;-2.58;81.21;100643.89;1688926;85;20305;-62
2020/12/23 03:58:50;;;;;;;;;;;;;;;-2.61;81.22;100647.69;1688937;85;20253;-61
2020/12/23 04:01:18;;;;;;;;;;;;;;;-2.64;81.34;100638.59;1688931;85;20294;-62
2020/12/23 04:03:45;;;;;;;;;;;;;;;-2.65;81.41;100635.12;1688849;85;21498;-62
2020/12/23 04:06:12;;;;;;;;;;;;;;;-2.67;81.45;100637.21;1688702;85;20285;-62
2020/12/23 04:08:41;;;;;;;;;;;;;;;-2.66;81.55;100632.53;1688963;85;20198;-62
2020/12/23 04:11:09;;;;;;;;;;;;;;;-2.66;81.44;100632.53;1688853;85;20705;-61
2020/12/23 04:13:36;;;;;;;;;;;;;;;-2.68;81.39;100621.30;1688810;85;20285;-62
2020/12/23 04:16:06;;;;;;;;;;;;;;;-2.73;81.50;100620.33;1688889;85;21395;-61
2020/12/23 04:18:33;;;;;;;;;;;;;;;-2.70;81.45;100622.97;1688837;85;20294;-61
2020/12/23 04:21:00;;;;;;;;;;;;;;;-2.70;81.37;100621.68;1680597;85;20302;-62
2020/12/23 04:23:28;;;;;;;;;;;;;;;-2.70;81.39;100611.37;1678924;85;20310;-62
2020/12/23 04:25:55;;;;;;;;;;;;;;;-2.72;81.45;100611.74;1673737;85;20286;-61
2020/12/23 04:28:23;;;;;;;;;;;;;;;-2.72;81.40;100611.74;1673899;85;21275;-62
2020/12/23 04:30:51;;;;;;;;;;;;;;;-2.73;81.50;100602.28;1681349;85;20243;-62
2020/12/23 04:33:18;;;;;;;;;;;;;;;-2.72;81.57;100604.01;1673936;85;20510;-61
2020/12/23 04:35:47;;;;;;;;;;;;;;;-2.72;81.65;100606.59;1670979;85;20548;-63
2020/12/23 04:38:15;;;;;;;;;;;;;;;-2.71;81.61;100602.77;1681409;85;20295;-62
2020/12/23 04:40:43;;;;;;;;;;;;;;;-2.73;81.65;100616.03;1673886;85;21446;-63
2020/12/23 04:43:10;;;;;;;;;;;;;;;-2.72;81.78;100604.01;1673727;85;20297;-61
2020/12/23 04:45:38;;;;;;;;;;;;;;;-2.73;81.80;100605.72;1681336;85;20280;-62
2020/12/23 04:48:06;;;;;;;;;;;;;;;-2.76;81.96;100603.95;1673702;85;21826;-61
2020/12/23 04:50:33;;;;;;;;;;;;;;;-2.74;82.15;100612.98;1684121;85;20580;-62
2020/12/23 04:53:01;;;;;;;;;;;;;;;-2.71;82.10;100613.47;1687325;85;21234;-61
2020/12/23 04:55:29;;;;;;;;;;;;;;;-2.72;82.22;100610.45;1688678;85;20294;-62
2020/12/23 04:57:56;;;;;;;;;;;;;;;-2.75;82.39;100613.41;1689008;85;20286;-62
2020/12/23 05:00:25;;;;;;;;;;;;;;;-2.72;82.32;100610.45;1689124;85;20289;-63
2020/12/23 05:02:53;;;;;;;;;;;;;;;-2.71;82.31;100601.87;1689107;85;20293;-63
2020/12/23 05:05:21;;;;;;;;;;;;;;;-2.72;82.34;100621.62;1688890;84;22129;-62
2020/12/23 05:07:48;;;;;;;;;;;;;;;-2.75;82.44;100625.44;1721650;80;20297;-75
2020/12/23 05:10:15;;;;;;;;;;;;;;;-2.71;82.43;100608.31;1714676;82;20301;-79
2020/12/23 05:12:44;;;;;;;;;;;;;;;-2.72;82.47;100607.88;1705780;84;20770;-77
2020/12/23 05:15:12;;;;;;;;;;;;;;;-2.70;82.45;100610.94;1706104;84;20295;-79
2020/12/23 05:17:46;;;;;;;;;;;;;;;-2.68;82.54;100610.98;1705932;84;21374;-78
2020/12/23 05:20:13;;;;;;;;;;;;;;;-2.68;82.49;100617.44;1705826;84;20587;-76
2020/12/23 05:22:45;;;;;;;;;;;;;;;-2.72;82.55;100606.59;1649007;84;443740;-76
2020/12/23 05:25:15;;;;;;;;;;;;;;;-2.68;82.57;100592.94;1650210;87;20269;-77
2020/12/23 05:27:42;;;;;;;;;;;;;;;-2.68;82.61;100603.25;1650226;87;20529;-77
2020/12/23 05:30:10;;;;;;;;;;;;;;;-2.65;82.66;100595.16;1650255;87;21305;-77
2020/12/23 05:32:39;;;;;;;;;;;;;;;-2.67;82.65;100598.54;1667821;86;20282;-77
2020/12/23 05:35:06;;;;;;;;;;;;;;;-2.71;82.82;100604.45;1622535;88;20354;-77
2020/12/23 05:37:34;;;;;;;;;;;;;;;-2.68;82.86;100613.56;1650822;87;20286;-77
2020/12/23 05:40:01;;;;;;;;;;;;;;;-2.69;82.90;100595.95;1650823;87;20528;-76
2020/12/23 05:42:29;;;;;;;;;;;;;;;-2.69;82.94;100597.23;1650802;87;21044;-75
2020/12/23 05:44:59;;;;;;;;;;;;;;;-2.67;83.01;100584.36;1637056;87;20647;-77
2020/12/23 05:47:27;;;;;;;;;;;;;;;-2.68;83.01;100590.36;1624191;88;20241;-78
2020/12/23 05:49:55;;;;;;;;;;;;;;;-2.71;83.12;100590.27;1637376;87;20286;-76
2020/12/23 05:52:23;;;;;;;;;;;;;;;-2.70;83.20;100596.77;1650285;87;20250;-78
2020/12/23 05:54:53;;;;;;;;;;;;;;;-2.70;83.29;100589.45;1650238;87;21222;-77
2020/12/23 05:57:21;;;;;;;;;;;;;;;-2.70;83.30;100589.45;1649972;87;20720;-76
2020/12/23 05:59:48;;;;;;;;;;;;;;;-2.71;83.39;100590.27;1649551;86;20299;-77
2020/12/23 06:02:16;;;;;;;;;;;;;;;-2.69;83.38;100580.87;1637765;84;20292;-63
2020/12/23 06:04:46;;;;;;;;;;;;;;;-2.66;83.44;100579.67;1613695;89;20299;-61
2020/12/23 06:07:13;;;;;;;;;;;;;;;-2.68;83.47;100568.45;1642306;87;21287;-62
2020/12/23 06:09:48;;;;;;;;;;;;;;;-2.71;83.45;100570.54;1611679;87;20325;-64
2020/12/23 06:12:18;;;;;;;;;;;;;;;-2.67;83.49;100574.05;1642693;87;20296;-61
2020/12/23 06:14:55;;;;;;;;;;;;;;;-2.70;83.57;100579.14;1616519;88;20296;-62
2020/12/23 06:17:24;;;;;;;;;;;;;;;-2.72;83.59;100573.94;1615238;87;20271;-66
2020/12/23 06:19:56;;;;;;;;;;;;;;;-2.70;83.64;100580.00;1647731;87;20282;-66
2020/12/23 06:22:25;;;;;;;;;;;;;;;-2.66;83.55;100582.25;1572442;89;20548;-65
2020/12/23 06:24:53;;;;;;;;;;;;;;;-2.69;83.48;100568.87;1569501;91;20321;-65
2020/12/23 06:27:20;;;;;;;;;;;;;;;-2.71;83.53;100583.83;1563796;87;20281;-65
2020/12/23 06:29:48;;;;;;;;;;;;;;;-2.70;83.53;100566.25;1561776;90;20570;-64
2020/12/23 06:32:20;;;;;;;;;;;;;;;-2.68;83.53;100567.16;1583543;88;22301;-66
2020/12/23 06:34:58;;;;;;;;;;;;;;;-2.68;83.48;100565.87;1585117;90;21157;-65
2020/12/23 06:37:30;;;;;;;;;;;;;;;-2.65;83.32;100564.64;1579167;87;20319;-66
2020/12/23 06:39:58;;;;;;;;;;;;;;;-2.64;83.25;100587.03;1569398;91;20684;-66
2020/12/23 06:42:29;;;;;;;;;;;;;;;-2.65;83.18;100574.95;1560579;92;20333;-66
2020/12/23 06:45:04;;;;;;;;;;;;;;;-2.64;83.16;100562.11;1569696;86;21244;-67
2020/12/23 06:47:35;;;;;;;;;;;;;;;-2.62;83.12;100563.45;1560686;92;21715;-64
2020/12/23 06:50:06;;;;;;;;;;;;;;;-2.62;83.04;100553.13;1548980;88;20314;-65
2020/12/23 06:52:37;;;;;;;;;;;;;;;-2.64;83.08;100543.20;1559405;90;20323;-66
2020/12/23 06:55:09;;;;;;;;;;;;;;;-2.66;83.21;100534.12;1602245;88;20254;-66
2020/12/23 06:57:44;;;;;;;;;;;;;;;-2.63;83.20;100532.90;1616519;88;22351;-66
2020/12/23 07:00:15;;;;;;;;;;;;;;;-2.62;83.17;100542.39;1644996;87;20289;-64
2020/12/23 07:02:45;;;;;;;;;;;;;;;-2.63;83.13;100524.30;1645089;87;20250;-66
2020/12/23 07:05:24;;;;;;;;;;;;;;;-2.62;83.24;100541.53;1645282;87;20723;-66
2020/12/23 07:07:53;;;;;;;;;;;;;;;-2.60;83.21;100544.98;1645120;87;20551;-65
2020/12/23 07:10:26;;;;;;;;;;;;;;;-2.59;83.21;100567.38;1645055;87;21422;-65
2020/12/23 07:13:13;;;;;;;;;;;;;;;-2.56;83.14;100562.28;1644725;87;20596;-65
2020/12/23 07:15:44;;;;;;;;;;;;;;;-2.57;83.09;100556.25;1644988;87;20233;-66
2020/12/23 07:18:18;;;;;;;;;;;;;;;-2.55;83.25;100545.98;1645230;87;20808;-65
2020/12/23 07:20:47;;;;;;;;;;;;;;;-2.51;83.12;100544.33;1645134;87;20306;-66
2020/12/23 07:23:17;;;;;;;;;;;;;;;-2.54;83.00;100556.73;1621247;83;22091;-66
2020/12/23 07:25:47;;;;;;;;;;;;;;;-2.51;83.04;100554.22;1615890;88;20285;-66
2020/12/23 07:28:17;;;;;;;;;;;;;;;-2.51;83.03;100539.17;1615970;88;20290;-64
2020/12/23 07:30:45;;;;;;;;;;;;;;;-2.50;83.01;100554.69;1599620;88;20704;-66
2020/12/23 07:35:57;;;;;;;;;;;;;;;-2.37;82.96;100546.79;1798439;78;20169;-65
2020/12/23 07:38:25;;;;;;;;;;;;;;;-2.40;82.87;100548.89;1748998;82;20280;-65
2020/12/23 07:40:53;;;;;;;;;;;;;;;-2.38;82.61;100545.06;1741876;80;32192;-65
2020/12/23 07:43:21;;;;;;;;;;;;;;;-2.37;82.55;100518.02;1719275;83;20565;-65
2020/12/23 07:45:48;;;;;;;;;;;;;;;-2.37;82.52;100525.77;1697155;81;20282;-74
2020/12/23 07:48:18;;;;;;;;;;;;;;;-2.35;82.51;100515.06;1675806;83;20677;-75
2020/12/23 07:50:51;;;;;;;;;;;;;;;-2.34;82.55;100520.66;1702607;82;20288;-76
2020/12/23 07:53:22;;;;;;;;;;;;;;;-2.32;82.45;100520.27;1681633;82;21395;-74
2020/12/23 07:55:59;;;;;;;;;;;;;;;-2.31;82.38;100534.03;1679298;84;20274;-77
2020/12/23 07:58:27;;;;;;;;;;;;;;;-2.32;82.51;100538.33;1693902;83;20272;-72
2020/12/23 08:00:54;;;;;;;;;;;;;;;-2.25;82.52;100537.19;1696874;83;20313;-72
2020/12/23 08:03:28;;;;;;;;;;;;;;;-2.25;82.33;100538.05;1677181;84;20235;-73
2020/12/23 08:06:10;;;;;;;;;;;;;;;-2.25;82.34;100526.87;1677003;85;21160;-72
2020/12/23 08:08:43;;;;;;;;;;;;;;;-2.24;82.30;100522.14;1673777;81;20231;31
2020/12/23 08:11:12;;;;;;;;;;;;;;;-2.24;82.25;100537.20;1668999;84;20304;-65
2020/12/23 08:13:40;;;;;;;;;;;;;;;-2.24;82.30;100521.72;1644444;85;20535;-67
2020/12/23 08:16:10;;;;;;;;;;;;;;;-2.19;82.31;100522.67;1662877;86;20237;-65
2020/12/23 08:18:39;;;;;;;;;;;;;;;-2.17;82.28;100516.27;1674911;83;21232;-68
2020/12/23 08:21:14;;;;;;;;;;;;;;;-2.15;82.21;100515.45;1679197;84;20336;-67
2020/12/23 08:23:42;;;;;;;;;;;;;;;-2.17;81.98;100540.78;1695696;84;20663;-69
2020/12/23 08:26:11;;;;;;;;;;;;;;;-2.11;81.93;100513.83;1664661;81;20260;-71
2020/12/23 08:28:41;;;;;;;;;;;;;;;-2.10;81.98;100515.55;1660369;84;20810;-74
2020/12/23 08:31:17;;;;;;;;;;;;;;;-2.09;81.88;100508.67;1653451;84;22364;-73
2020/12/23 08:33:45;;;;;;;;;;;;;;;-2.10;81.86;100505.23;1696454;82;20511;-64
2020/12/23 08:36:13;;;;;;;;;;;;;;;-2.04;81.74;100508.37;1711538;83;20286;-64
2020/12/23 08:38:41;;;;;;;;;;;;;;;-2.02;81.68;100511.43;1678328;83;20292;-65
2020/12/23 08:41:14;;;;;;;;;;;;;;;-2.02;81.62;100504.98;1720791;82;20277;-64
2020/12/23 08:43:46;;;;;;;;;;;;;;;-2.02;81.72;100503.69;1723427;81;21824;-64
2020/12/23 08:46:23;;;;;;;;;;;;;;;-2.03;81.70;100496.77;1723139;83;20541;-65
2020/12/23 08:48:52;;;;;;;;;;;;;;;-2.00;81.78;100498.14;1722918;82;20307;-65
2020/12/23 08:51:21;;;;;;;;;;;;;;;-1.97;81.95;100493.02;1719163;82;20305;-67
2020/12/23 08:53:53;;;;;;;;;;;;;;;-1.97;82.50;100487.00;1720515;81;20321;-65
2020/12/23 08:56:25;;;;;;;;;;;;;;;-1.94;82.78;100485.76;1729667;82;21211;-63
2020/12/23 08:59:01;;;;;;;;;;;;;;;-1.97;83.25;100478.83;1725441;81;20411;-77
2020/12/23 09:01:34;;;;;;;;;;;;;;;-1.97;83.79;100474.95;1725538;82;20511;-78
2020/12/23 09:04:07;;;;;;;;;;;;;;;-1.96;84.09;100481.84;1722049;82;20269;-79
2020/12/23 09:06:38;;;;;;;;;;;;;;;-2.01;84.75;100467.98;1715369;82;20293;-85
2020/12/23 09:09:18;;;;;;;;;;;;;;;-2.02;85.30;100474.00;1700651;82;21225;-81
2020/12/23 09:11:53;;;;;;;;;;;;;;;-2.06;85.79;100461.88;1700400;82;20229;-73
2020/12/23 09:14:22;;;;;;;;;;;;;;;-2.04;85.97;100467.94;1695517;82;20263;-73
2020/12/23 09:16:54;;;;;;;;;;;;;;;-2.08;86.70;100466.12;1707420;82;20239;-72
2020/12/23 09:19:45;;;;;;;;;;;;;;;-2.12;87.14;100473.36;1711241;82;20252;-72
2020/12/23 09:22:25;;;;;;;;;;;;;;;-2.15;87.55;100455.24;1679032;82;25648;-73
2020/12/23 09:27:33;;;;;;;;;;;;;;;-2.18;88.34;100455.19;1733847;82;20311;-72
2020/12/23 09:30:00;;;;;;;;;;;;;;;-2.15;88.49;100448.79;1739384;82;20261;-72
2020/12/23 09:32:27;;;;;;;;;;;;;;;-2.16;88.67;100441.91;1713109;82;20307;-73
2020/12/23 09:35:16;;;;;;;;;;;;;;;-2.17;88.81;100436.28;1710496;82;21638;-73
2020/12/23 09:37:43;;;;;;;;;;;;;;;-2.13;88.95;100436.37;1625946;87;20322;-76
2020/12/23 09:40:16;;;;;;;;;;;;;;;-2.13;89.00;100426.47;1677935;83;20292;-72
2020/12/23 09:42:41;;;;;;;;;;;;;;;-2.09;89.07;100429.57;1716035;83;20280;-73
2020/12/23 09:45:08;;;;;;;;;;;;;;;-2.08;88.97;100433.87;1709423;83;20272;-74
2020/12/23 09:47:43;;;;;;;;;;;;;;;-2.08;88.94;100413.23;1710893;83;21379;-72
2020/12/23 09:50:11;;;;;;;;;;;;;;;-2.06;89.13;100415.42;1694225;82;20225;-73
2020/12/23 09:52:39;;;;;;;;;;;;;;;-2.05;89.26;100411.98;1693701;83;20271;-74
2020/12/23 09:55:07;;;;;;;;;;;;;;;-2.02;89.24;100410.77;1695112;83;20296;-75
2020/12/23 09:57:36;;;;;;;;;;;;;;;-2.02;89.23;100404.32;1677987;83;20264;-74
2020/12/23 10:00:06;;;;;;;;;;;;;;;-1.98;89.24;100406.13;1682376;83;22010;-74
2020/12/23 10:02:35;;;;;;;;;;;;;;;-1.96;89.16;100398.38;1697277;83;20456;-72
2020/12/23 10:05:04;;;;;;;;;;;;;;;-1.95;89.11;100391.97;1680477;83;20291;-74
2020/12/23 10:07:31;;;;;;;;;;;;;;;-1.94;89.17;100394.98;1681910;83;20295;-73
2020/12/23 10:10:00;;;;;;;;;;;;;;;-1.90;89.09;100394.20;1707296;83;20267;-74
2020/12/23 10:12:27;;;;;;;;;;;;;;;-1.83;89.07;100387.88;1692154;83;21275;-74
2020/12/23 10:14:55;;;;;;;;;;;;;;;-1.81;88.93;100385.76;1696223;83;20276;-75
2020/12/23 10:17:22;;;;;;;;;;;;;;;-1.79;88.70;100388.38;1690893;83;20316;-73
2020/12/23 10:19:49;;;;;;;;;;;;;;;-1.77;88.54;100381.50;1686663;83;20339;-73
2020/12/23 10:22:17;;;;;;;;;;;;;;;-1.76;88.53;100367.77;1692384;83;20275;-74
2020/12/23 10:24:45;;;;;;;;;;;;;;;-1.77;88.57;100380.20;1681891;83;21305;-73
2020/12/23 10:27:13;;;;;;;;;;;;;;;-1.77;88.48;100367.30;1709237;83;20277;-74
2020/12/23 10:29:40;;;;;;;;;;;;;;;-1.75;88.57;100365.61;1689663;83;20315;-76
2020/12/23 10:32:08;;;;;;;;;;;;;;;-1.74;88.59;100367.38;1690023;83;20251;-75
2020/12/23 10:34:35;;;;;;;;;;;;;;;-1.72;88.59;100354.06;1689201;83;20253;-75
2020/12/23 10:37:04;;;;;;;;;;;;;;;-1.70;88.67;100352.37;1683462;83;21379;-75
2020/12/23 10:39:31;;;;;;;;;;;;;;;-1.66;88.41;100348.12;1699305;83;20273;-74
2020/12/23 10:41:58;;;;;;;;;;;;;;;-1.63;88.51;100351.63;1709418;83;20243;-76
2020/12/23 10:44:25;;;;;;;;;;;;;;;-1.64;88.43;100352.45;1695124;83;20291;-76
2020/12/23 10:46:55;;;;;;;;;;;;;;;-1.66;88.48;100348.98;1696867;83;20600;-75
2020/12/23 10:49:23;;;;;;;;;;;;;;;-1.66;88.68;100344.25;1689161;83;21845;-75
2020/12/23 10:51:56;;;;;;;;;;;;;;;-1.68;88.73;100342.92;1694704;83;20846;-76
2020/12/23 10:54:25;;;;;;;;;;;;;;;-1.69;88.75;100345.93;1693381;83;20296;-74
2020/12/23 10:56:52;;;;;;;;;;;;;;;-1.72;88.97;100342.02;1691266;83;20473;-77
2020/12/23 10:59:20;;;;;;;;;;;;;;;-1.72;89.08;100339.86;1708688;83;20214;-75
2020/12/23 11:01:52;;;;;;;;;;;;;;;-1.73;89.35;100326.48;1716643;83;21026;-76
2020/12/23 11:04:20;;;;;;;;;;;;;;;-1.74;89.48;100329.93;1716526;82;20591;-76
2020/12/23 11:06:50;;;;;;;;;;;;;;;-1.74;89.70;100328.64;1704210;83;20296;-75
2020/12/23 11:09:18;;;;;;;;;;;;;;;-1.77;89.73;100319.53;1694024;83;20206;-75
2020/12/23 11:11:52;;;;;;;;;;;;;;;-1.76;89.83;100322.15;1702053;83;20265;-78
2020/12/23 11:14:19;;;;;;;;;;;;;;;-1.74;89.85;100319.60;1714106;83;21224;-78
2020/12/23 11:16:48;;;;;;;;;;;;;;;-1.74;89.86;100319.60;1698812;83;20268;-79
2020/12/23 11:19:15;;;;;;;;;;;;;;;-1.69;89.85;100314.08;1701285;83;20265;-79
2020/12/23 11:21:42;;;;;;;;;;;;;;;-1.64;89.91;100318.89;1681370;83;20212;-79
2020/12/23 11:24:10;;;;;;;;;;;;;;;-1.60;89.84;100308.20;1691730;83;20295;-79
2020/12/23 11:26:38;;;;;;;;;;;;;;;-1.61;89.97;100306.44;1699771;83;21388;-80
2020/12/23 11:29:05;;;;;;;;;;;;;;;-1.57;89.92;100310.38;1690204;83;20302;-79
2020/12/23 11:31:33;;;;;;;;;;;;;;;-1.59;89.77;100313.36;1684756;83;20287;-78
2020/12/23 11:34:01;;;;;;;;;;;;;;;-1.55;89.89;100316.45;1717620;82;20246;-76
2020/12/23 11:36:28;;;;;;;;;;;;;;;-1.56;89.86;100314.72;1698595;83;20279;-78
2020/12/23 11:38:59;;;;;;;;;;;;;;;-1.57;89.89;100307.80;1701101;83;21171;-79
2020/12/23 11:41:27;;;;;;;;;;;;;;;-1.57;89.94;100297.47;1686791;83;20251;-76
2020/12/23 11:43:55;;;;;;;;;;;;;;;-1.53;89.95;100304.42;1694425;81;20224;-64
2020/12/23 11:46:22;;;;;;;;;;;;;;;-1.55;89.85;100306.11;1729609;81;20248;-63
2020/12/23 11:48:50;;;;;;;;;;;;;;;-1.57;89.70;100291.02;1733013;81;20298;-63
2020/12/23 11:51:17;;;;;;;;;;;;;;;-1.54;89.66;100300.12;1727877;81;21352;-62
2020/12/23 11:53:46;;;;;;;;;;;;;;;-1.54;89.66;100285.91;1723307;83;20683;-63
2020/12/23 11:56:15;;;;;;;;;;;;;;;-1.53;89.54;100293.23;1724779;81;20282;-62
2020/12/23 11:58:43;;;;;;;;;;;;;;;-1.52;89.33;100293.27;1723375;81;20259;-63
2020/12/23 12:01:10;;;;;;;;;;;;;;;-1.54;89.27;100284.63;1722905;81;20584;-63
2020/12/23 12:03:46;;;;;;;;;;;;;;;-1.52;89.23;100290.69;1737252;81;21224;-64
2020/12/23 12:06:22;;;;;;;;;;;;;;;-1.48;89.19;100292.87;1693364;82;20498;-77
2020/12/23 12:08:50;;;;;;;;;;;;;;;-1.51;89.13;100282.07;1709446;83;20507;-76
2020/12/23 12:11:17;;;;;;;;;;;;;;;-1.49;88.97;100282.97;1703011;83;20563;-76
2020/12/23 12:13:45;;;;;;;;;;;;;;;-1.44;88.90;100290.78;1724985;83;20272;-77
2020/12/23 12:16:14;;;;;;;;;;;;;;;-1.44;88.86;100296.38;1718198;83;21363;-77
2020/12/23 12:18:42;;;;;;;;;;;;;;;-1.43;88.87;100292.94;1694102;84;20298;-76
2020/12/23 12:21:09;;;;;;;;;;;;;;;-1.41;88.88;100293.39;1694552;84;20610;-77
2020/12/23 12:23:36;;;;;;;;;;;;;;;-1.42;88.86;100308.89;1694434;84;20281;-75
2020/12/23 12:26:04;;;;;;;;;;;;;;;-1.41;88.92;100305.45;1692143;83;20250;-75
2020/12/23 12:28:31;;;;;;;;;;;;;;;-1.38;88.86;100296.05;1690307;84;21398;-78
2020/12/23 12:30:59;;;;;;;;;;;;;;;-1.39;88.75;100290.84;1692235;83;20280;-76
2020/12/23 12:33:26;;;;;;;;;;;;;;;-1.38;88.76;100293.46;1694004;84;20268;-75
2020/12/23 12:35:54;;;;;;;;;;;;;;;-1.37;88.69;100294.33;1688255;84;20313;-75
2020/12/23 12:38:21;;;;;;;;;;;;;;;-1.36;88.63;100296.05;1695934;84;20272;-75
2020/12/23 12:40:49;;;;;;;;;;;;;;;-1.36;88.79;100294.75;1668072;85;22008;-77